Time;durP1;ratioP1;P1;durP2;ratioP2;P2;SDS_P1;SDS_P2;PMS_P1;PMS_P2;Temp;Humidity;BMP_temperature;BMP_pressure;BME280_temperature;BME280_humidity;BME280_pressure;Samples;Min_cycle;Max_cycle;Signal;HPM_P1;HPM_P2
2022/08/20 00:00:30;;;;;;;3.40;2.78;;;;;;;17.80;100.00;98244.53;15287744;19;20010;-76
2022/08/20 00:05:37;;;;;;;4.38;2.97;;;;;;;17.81;100.00;98240.75;15290665;19;20071;-74
2022/08/20 00:10:45;;;;;;;2.97;2.72;;;;;;;17.82;100.00;98238.88;15291234;19;20018;-75
2022/08/20 00:15:59;;;;;;;3.35;3.05;;;;;;;17.82;100.00;98230.69;15288654;19;20010;-73
2022/08/20 00:21:07;;;;;;;3.75;3.28;;;;;;;17.79;100.00;98245.59;15287242;19;20031;-75
2022/08/20 00:26:12;;;;;;;4.57;3.30;;;;;;;17.79;100.00;98245.59;15287331;19;20014;-74
2022/08/20 00:31:21;;;;;;;3.67;3.22;;;;;;;17.76;100.00;98239.72;15285070;19;20058;-74
2022/08/20 00:36:26;;;;;;;4.20;3.30;;;;;;;17.74;100.00;98237.19;15290014;19;20031;-73
2022/08/20 00:41:44;;;;;;;4.72;3.97;;;;;;;17.71;100.00;98245.78;15291637;19;20038;-75
2022/08/20 00:46:54;;;;;;;4.78;4.05;;;;;;;17.64;100.00;98240.34;15304022;19;20119;-74
2022/08/20 00:52:03;;;;;;;4.47;4.00;;;;;;;17.61;100.00;98248.09;15299401;19;20015;-74
2022/08/20 00:57:12;;;;;;;4.97;3.83;;;;;;;17.57;100.00;98250.41;15275365;19;20047;-73
2022/08/20 01:02:24;;;;;;;4.95;4.30;;;;;;;17.53;100.00;98244.56;15276162;19;20043;-73
2022/08/20 01:07:33;;;;;;;5.20;3.60;;;;;;;17.50;100.00;98252.31;15274529;19;20333;-74
2022/08/20 01:12:40;;;;;;;5.25;3.90;;;;;;;17.47;100.00;98253.56;15274147;19;20006;-73
2022/08/20 01:17:57;;;;;;;8.20;4.70;;;;;;;17.41;100.00;98248.97;15277764;19;20014;-73
2022/08/20 01:28:33;;;;;;;4.43;3.92;;;;;;;17.37;100.00;98255.88;15273905;19;20069;-74
2022/08/20 01:33:38;;;;;;;4.95;4.45;;;;;;;17.37;100.00;98258.59;15273456;19;20526;-74
2022/08/20 01:38:45;;;;;;;5.93;5.03;;;;;;;17.36;100.00;98259.63;15270782;19;20017;-73
2022/08/20 01:44:01;;;;;;;6.43;5.28;;;;;;;17.34;100.00;98261.75;15272988;19;20006;-73
2022/08/20 01:49:10;;;;;;;5.40;4.90;;;;;;;17.33;100.00;98260.91;15273788;19;20023;-74
2022/08/20 01:54:17;;;;;;;6.00;5.40;;;;;;;17.23;100.00;98264.03;15264176;19;20018;-74
2022/08/20 01:59:24;;;;;;;5.75;5.22;;;;;;;17.22;100.00;98258.81;15275617;19;20069;-75
2022/08/20 02:04:30;;;;;;;6.00;5.40;;;;;;;17.17;100.00;98273.03;15268210;19;20014;-73
2022/08/20 02:09:38;;;;;;;7.22;6.53;;;;;;;17.18;100.00;98276.59;15267794;19;20443;-73
2022/08/20 02:14:50;;;;;;;6.97;6.28;;;;;;;17.13;100.00;98285.38;15270374;19;20019;-74
2022/08/20 02:19:58;;;;;;;8.63;7.72;;;;;;;17.04;100.00;98281.19;15277541;19;20014;-74
2022/08/20 02:25:03;;;;;;;10.35;8.43;;;;;;;17.00;100.00;98290.78;15271713;19;20010;-73
2022/08/20 02:30:15;;;;;;;9.13;8.23;;;;;;;16.96;100.00;98293.09;15269578;19;20030;-74
2022/08/20 02:35:32;;;;;;;9.38;8.38;;;;;;;16.94;100.00;98297.91;15269750;19;20018;-73
2022/08/20 02:40:37;;;;;;;11.43;9.48;;;;;;;16.93;100.00;98301.66;15269065;19;20033;-73
2022/08/20 02:45:45;;;;;;;10.93;9.70;;;;;;;16.93;100.00;98305.22;15270088;19;20503;-73
2022/08/20 02:50:53;;;;;;;11.30;10.07;;;;;;;16.93;100.00;98298.94;15273272;19;20011;-76
2022/08/20 02:55:57;;;;;;;12.82;11.43;;;;;;;16.89;100.00;98295.78;15287111;19;20610;-74
2022/08/20 03:01:10;;;;;;;14.65;11.05;;;;;;;16.91;100.00;98292.88;15280674;19;20661;-74
2022/08/20 03:06:16;;;;;;;10.73;9.63;;;;;;;16.91;100.00;98288.25;15284217;19;20723;-75
2022/08/20 03:11:21;;;;;;;10.65;9.45;;;;;;;16.94;100.00;98298.75;15286523;19;20010;-74
2022/08/20 03:16:29;;;;;;;12.27;10.25;;;;;;;16.96;100.00;98300.44;15282884;19;20026;-73
2022/08/20 03:21:36;;;;;;;9.50;8.50;;;;;;;16.98;100.00;98295.63;15285237;19;20025;-74
2022/08/20 03:26:40;;;;;;;10.50;9.13;;;;;;;17.00;100.00;98304.41;15280478;19;20022;-74
2022/08/20 03:31:48;;;;;;;9.45;8.45;;;;;;;17.02;100.00;98302.31;15278077;19;20472;-74
2022/08/20 03:36:53;;;;;;;8.27;7.47;;;;;;;17.03;100.00;98293.97;15282704;19;20336;-74
2022/08/20 03:41:57;;;;;;;9.40;8.50;;;;;;;17.04;100.00;98295.66;15282966;19;20049;-74
2022/08/20 03:47:08;;;;;;;8.90;8.00;;;;;;;17.05;100.00;98296.47;15276789;19;20657;-73
2022/08/20 03:52:13;;;;;;;8.68;7.70;;;;;;;17.06;100.00;98287.25;15280440;19;20467;-74
2022/08/20 03:57:18;;;;;;;9.57;7.57;;;;;;;17.04;100.00;98290.22;15282821;19;20759;-74
2022/08/20 04:02:27;;;;;;;9.10;7.30;;;;;;;17.04;100.00;98294.78;15272172;19;20015;-74
2022/08/20 04:07:31;;;;;;;8.18;7.38;;;;;;;17.03;100.00;98287.66;14771154;19;10000095;-74
2022/08/20 04:12:39;;;;;;;8.02;7.20;;;;;;;16.99;100.00;98287.25;15281282;19;20496;-74
2022/08/20 04:17:57;;;;;;;9.25;7.03;;;;;;;17.00;100.00;98288.94;15279637;19;20128;-74
2022/08/20 04:23:02;;;;;;;7.20;6.20;;;;;;;17.00;100.00;98286.22;15282107;19;20010;-73
2022/08/20 04:28:10;;;;;;;8.23;7.30;;;;;;;17.01;100.00;98289.75;15282544;19;20014;-72
2022/08/20 04:33:23;;;;;;;7.70;6.80;;;;;;;17.03;100.00;98293.13;15282328;19;20359;-72
2022/08/20 04:38:38;;;;;;;7.57;6.88;;;;;;;17.03;100.00;98295.84;15285882;19;20025;-74
2022/08/20 04:43:56;;;;;;;7.97;7.10;;;;;;;17.05;100.00;98304.63;15341444;19;20018;-72
2022/08/20 04:49:04;;;;;;;8.27;7.43;;;;;;;17.05;100.00;98312.81;15287414;19;20011;-72
2022/08/20 04:54:08;;;;;;;7.47;6.65;;;;;;;17.06;100.00;98314.47;15275769;19;20014;-75
2022/08/20 04:59:13;;;;;;;8.32;6.50;;;;;;;17.08;100.00;98317.84;15281494;19;20046;-75
2022/08/20 05:04:21;;;;;;;10.35;7.68;;;;;;;17.10;100.00;98323.94;15275721;19;20013;-74
2022/08/20 05:09:25;;;;;;;11.45;7.43;;;;;;;17.09;100.00;98324.97;15272793;19;20042;-73
2022/08/20 05:14:30;;;;;;;9.68;8.13;;;;;;;17.07;100.00;98327.06;15276651;19;20018;-75
2022/08/20 05:19:39;;;;;;;9.10;7.88;;;;;;;17.10;100.00;98337.53;15281071;19;20042;-74
2022/08/20 05:24:43;;;;;;;8.82;7.78;;;;;;;17.11;100.00;98336.47;15269958;19;20035;-75
2022/08/20 05:29:49;;;;;;;8.10;7.15;;;;;;;17.12;100.00;98334.59;15275973;19;20058;-72
2022/08/20 05:34:59;;;;;;;8.95;7.38;;;;;;;17.14;100.00;98344.22;15272028;19;20014;-74
2022/08/20 05:40:09;;;;;;;10.55;7.90;;;;;;;17.15;100.00;98350.53;15273061;19;20050;-76
2022/08/20 05:45:15;;;;;;;8.73;7.78;;;;;;;17.17;100.00;98343.00;15282276;19;20007;-75
2022/08/20 05:50:23;;;;;;;8.60;7.70;;;;;;;17.13;100.00;98342.53;15280220;19;20018;-77
2022/08/20 05:55:27;;;;;;;8.68;7.78;;;;;;;17.18;100.00;98344.66;15281723;19;20055;-77
2022/08/20 06:00:33;;;;;;;10.68;7.78;;;;;;;17.18;100.00;98342.78;15288163;19;20024;-78
2022/08/20 06:05:41;;;;;;;8.23;7.30;;;;;;;17.22;100.00;98338.63;15286609;19;20018;-78
2022/08/20 06:10:46;;;;;;;8.55;7.75;;;;;;;17.23;100.00;98340.25;15280241;19;20059;-78
2022/08/20 06:15:54;;;;;;;9.95;8.23;;;;;;;17.24;100.00;98333.78;15279652;19;20482;-76
2022/08/20 06:21:01;;;;;;;7.88;7.07;;;;;;;17.31;100.00;98347.41;15283026;19;20531;-77
2022/08/20 06:26:08;;;;;;;8.00;7.20;;;;;;;17.32;100.00;98345.53;15275390;19;20477;-78
2022/08/20 06:31:12;;;;;;;8.90;8.10;;;;;;;17.37;100.00;98353.91;15280459;19;20795;-78
2022/08/20 06:36:20;;;;;;;9.07;8.18;;;;;;;17.42;100.00;98356.84;15280824;19;20026;-77
2022/08/20 06:41:25;;;;;;;8.52;7.57;;;;;;;17.51;100.00;98363.78;15279818;19;20010;-77
2022/08/20 06:46:40;;;;;;;8.93;8.02;;;;;;;17.62;100.00;98370.50;15275456;19;20029;-77
2022/08/20 06:51:47;;;;;;;8.30;7.45;;;;;;;17.73;100.00;98369.03;15282007;19;20011;-78
2022/08/20 06:56:55;;;;;;;7.70;6.93;;;;;;;17.83;100.00;98379.53;15277870;19;20090;-77
2022/08/20 07:02:00;;;;;;;8.00;7.20;;;;;;;17.88;100.00;98368.81;15269313;19;20042;-76
2022/08/20 07:07:07;;;;;;;6.50;5.70;;;;;;;17.94;100.00;98361.69;15271309;19;20044;-77
2022/08/20 07:12:12;;;;;;;6.68;6.07;;;;;;;18.02;100.00;98369.69;15271520;19;20011;-77
2022/08/20 07:17:16;;;;;;;6.40;5.80;;;;;;;18.08;100.00;98368.84;15268039;19;20409;-76
2022/08/20 07:22:24;;;;;;;6.35;5.75;;;;;;;18.17;100.00;98372.19;15270583;19;20014;-77
2022/08/20 07:27:28;;;;;;;7.50;5.75;;;;;;;18.23;100.00;98374.06;15272408;19;20007;-77
2022/08/20 07:32:36;;;;;;;6.32;5.35;;;;;;;18.33;100.00;98373.63;15271439;19;20010;-77
2022/08/20 07:37:48;;;;;;;6.07;5.47;;;;;;;18.39;100.00;98366.47;15282266;19;20014;-77
2022/08/20 07:42:53;;;;;;;5.55;5.05;;;;;;;18.48;100.00;98374.22;15295606;19;20034;-76
2022/08/20 07:48:08;;;;;;;6.15;5.45;;;;;;;18.58;100.00;98371.03;15297674;19;20035;-79
2022/08/20 07:53:16;;;;;;;5.40;4.90;;;;;;;18.67;100.00;98376.28;15326886;19;20007;-79
2022/08/20 07:58:23;;;;;;;6.22;5.07;;;;;;;18.72;100.00;98369.13;15316808;19;20019;-76
2022/08/20 08:03:36;;;;;;;5.72;4.93;;;;;;;18.81;100.00;98368.88;15283437;19;20021;-76
2022/08/20 08:08:56;;;;;;;5.07;4.57;;;;;;;18.89;100.00;98368.63;15035193;19;5001469;-77
2022/08/20 08:14:01;;;;;;;5.43;4.93;;;;;;;19.00;100.00;98367.97;15269846;19;20128;-76
2022/08/20 08:19:10;;;;;;;5.40;4.90;;;;;;;19.13;100.00;98377.16;15298350;19;20021;-78
2022/08/20 08:24:19;;;;;;;6.40;4.47;;;;;;;19.22;100.00;98384.06;15263416;19;20031;-78
2022/08/20 08:29:29;;;;;;;6.97;4.80;;;;;;;19.33;100.00;98377.91;15295515;19;20482;-78
2022/08/20 08:34:38;;;;;;;5.15;4.65;;;;;;;19.43;100.00;98377.41;15311998;19;20021;-78
2022/08/20 08:39:45;;;;;;;5.28;4.78;;;;;;;19.52;100.00;98364.31;15350901;19;20073;-77
2022/08/20 08:44:49;;;;;;;4.95;4.45;;;;;;;19.63;100.00;98363.59;15277284;19;20093;-78
2022/08/20 08:49:55;;;;;;;4.65;4.20;;;;;;;19.75;100.00;98373.81;15284064;19;20252;-78
2022/08/20 08:55:05;;;;;;;4.70;4.05;;;;;;;19.76;100.00;98372.75;15278336;19;20369;-78
2022/08/20 09:00:15;;;;;;;4.82;3.90;;;;;;;19.80;100.00;98371.25;15288917;19;20042;-77
2022/08/20 09:05:23;;;;;;;6.43;4.15;;;;;;;19.89;100.00;98377.31;15287742;19;20090;-78
2022/08/20 09:10:30;;;;;;;4.72;4.22;;;;;;;19.97;100.00;98372.41;15284859;19;20011;-78
2022/08/20 09:15:35;;;;;;;3.90;3.50;;;;;;;19.92;100.00;98350.38;15288810;19;20014;-77
2022/08/20 09:20:40;;;;;;;5.22;4.00;;;;;;;19.98;100.00;98351.38;15290418;19;20014;-78
2022/08/20 09:25:47;;;;;;;4.60;4.15;;;;;;;20.00;100.00;98357.44;15289638;19;20038;-78
2022/08/20 09:30:52;;;;;;;4.40;3.97;;;;;;;20.02;100.00;98361.63;15290972;19;20021;-78
2022/08/20 09:35:56;;;;;;;3.90;3.50;;;;;;;20.13;100.00;98368.25;15291879;19;20625;-78
2022/08/20 09:41:03;;;;;;;3.88;3.47;;;;;;;20.21;100.00;98367.13;15287658;19;20042;-78
2022/08/20 09:46:08;;;;;;;5.63;3.60;;;;;;;20.36;100.00;98357.75;15291196;19;20479;-78
2022/08/20 09:51:13;;;;;;;5.75;3.90;;;;;;;20.45;100.00;98361.84;15289145;19;20046;-78
2022/08/20 09:56:20;;;;;;;4.65;4.00;;;;;;;20.48;100.00;98353.19;15283803;19;20007;-77
2022/08/20 10:01:25;;;;;;;3.70;3.38;;;;;;;20.62;100.00;98351.97;15286094;19;20025;-78
2022/08/20 10:06:29;;;;;;;6.32;3.67;;;;;;;20.64;100.00;98344.34;15289414;19;20482;-78
2022/08/20 10:11:43;;;;;;;4.55;3.72;;;;;;;20.72;100.00;98335.00;15280085;19;20074;-79
2022/08/20 10:16:48;;;;;;;5.82;3.70;;;;;;;20.85;100.00;98333.19;15286427;19;20049;-78
2022/08/20 10:21:54;;;;;;;5.10;3.90;;;;;;;20.99;100.00;98342.09;15285849;19;20051;-78
2022/08/20 10:27:02;;;;;;;4.72;3.50;;;;;;;20.99;100.00;98334.69;15289544;19;20006;-79
2022/08/20 10:32:13;;;;;;;3.47;3.17;;;;;;;21.05;100.00;98343.88;15284162;19;20531;-79
2022/08/20 10:37:20;;;;;;;4.00;3.08;;;;;;;21.11;100.00;98345.69;15291087;19;20672;-77
2022/08/20 10:42:27;;;;;;;6.65;3.20;;;;;;;21.18;100.00;98343.72;15278694;19;20848;-78
2022/08/20 10:47:34;;;;;;;3.88;3.13;;;;;;;21.21;100.00;98347.88;15283917;19;20007;-78
2022/08/20 10:52:39;;;;;;;4.25;3.10;;;;;;;21.31;100.00;98345.41;15284011;19;20128;-79
2022/08/20 10:57:46;;;;;;;4.80;3.30;;;;;;;21.43;100.00;98342.72;15284851;19;20011;-78
2022/08/20 11:02:51;;;;;;;3.55;3.00;;;;;;;21.64;100.00;98335.03;15274737;19;20015;-78
2022/08/20 11:07:56;;;;;;;4.47;2.85;;;;;;;21.78;100.00;98341.97;15283037;19;20014;-78
2022/08/20 11:13:04;;;;;;;4.82;3.20;;;;;;;21.83;100.00;98333.88;15287157;19;20038;-78
2022/08/20 11:18:11;;;;;;;2.80;2.60;;;;;;;21.95;100.00;98333.03;15283421;19;20018;-77
2022/08/20 11:23:16;;;;;;;3.30;3.00;;;;;;;22.03;100.00;98327.22;15286168;19;20550;-78
2022/08/20 11:28:23;;;;;;;3.30;2.85;;;;;;;22.08;100.00;98335.56;15292118;19;20039;-76
2022/08/20 11:33:35;;;;;;;3.10;2.67;;;;;;;22.21;100.00;98339.13;15286056;19;20015;-78
2022/08/20 11:38:40;;;;;;;3.00;2.50;;;;;;;22.17;100.00;98339.59;15292704;19;20128;-77
2022/08/20 11:43:47;;;;;;;2.10;1.90;;;;;;;22.13;100.00;98346.66;15284432;19;20038;-76
2022/08/20 11:49:12;;;;;;;2.83;2.08;;;;;;;21.98;100.00;98340.81;15286610;19;20007;-77
2022/08/20 11:54:16;;;;;;;3.13;2.08;;;;;;;22.13;100.00;98335.69;15288332;19;20011;-77
2022/08/20 11:59:24;;;;;;;2.15;1.83;;;;;;;22.26;100.00;98337.34;15295446;19;20475;-76
2022/08/20 12:04:28;;;;;;;3.22;2.20;;;;;;;22.31;100.00;98339.34;15287995;19;20014;-77
2022/08/20 12:09:36;;;;;;;1.88;1.50;;;;;;;22.31;100.00;98322.88;15291767;19;20448;-79
2022/08/20 12:14:57;;;;;;;2.97;1.52;;;;;;;22.51;100.00;98310.75;15289518;19;20022;-78
2022/08/20 12:20:04;;;;;;;3.00;1.58;;;;;;;22.51;100.00;98313.50;15297768;19;20106;-77
2022/08/20 12:25:10;;;;;;;1.98;1.42;;;;;;;22.61;100.00;98300.78;15291235;19;20034;-79
2022/08/20 12:30:19;;;;;;;3.45;1.40;;;;;;;22.71;100.00;98299.31;15294849;19;20010;-79
2022/08/20 12:35:24;;;;;;;2.17;1.35;;;;;;;22.86;100.00;98298.81;15296063;19;20019;-79
2022/08/20 12:40:35;;;;;;;1.40;1.17;;;;;;;22.86;100.00;98296.06;15299833;19;20042;-81
2022/08/20 12:45:42;;;;;;;3.17;1.50;;;;;;;22.96;100.00;98301.75;15337577;19;20051;-78
2022/08/20 12:50:48;;;;;;;2.60;1.48;;;;;;;22.87;100.00;98295.00;15325032;19;20011;-79
2022/08/20 12:55:53;;;;;;;2.70;1.48;;;;;;;23.03;100.00;98302.44;15285396;19;20061;-79
2022/08/20 13:01:01;;;;;;;3.97;1.65;;;;;;;23.11;100.00;98308.63;15291401;19;20362;-79
2022/08/20 13:06:07;;;;;;;2.90;1.75;;;;;;;23.23;100.00;98298.41;15301722;19;20014;-87
2022/08/20 13:11:12;;;;;;;3.55;1.85;;;;;;;23.30;100.00;98306.50;15297497;19;20018;-88
2022/08/20 13:16:21;;;;;;;2.10;1.90;;;;;;;23.44;100.00;98307.06;15341992;19;20018;-87
2022/08/20 13:21:28;;;;;;;2.47;1.90;;;;;;;23.50;100.00;98311.53;15338300;19;20015;-87
2022/08/20 13:26:34;;;;;;;3.15;2.20;;;;;;;23.63;100.00;98313.97;15300466;19;20264;-87
2022/08/20 13:31:43;;;;;;;4.05;2.00;;;;;;;23.77;100.00;98316.41;15294936;19;20550;-87
2022/08/20 13:36:48;;;;;;;2.30;2.10;;;;;;;23.74;100.00;98311.38;15301419;19;20014;-87
2022/08/20 13:41:53;;;;;;;3.10;2.30;;;;;;;23.70;100.00;98308.31;15321774;19;20022;-87
2022/08/20 13:47:00;;;;;;;2.05;1.90;;;;;;;23.78;100.00;98301.56;15307011;19;20082;-87
2022/08/20 13:52:05;;;;;;;5.55;2.33;;;;;;;23.81;100.00;98304.63;15301423;19;20007;-87
2022/08/20 13:57:17;;;;;;;2.85;2.00;;;;;;;23.83;100.00;98305.22;15296986;19;20010;-88
2022/08/20 14:02:25;;;;;;;3.50;2.00;;;;;;;23.93;100.00;98304.53;15295720;19;20467;-87
2022/08/20 14:07:32;;;;;;;3.53;2.00;;;;;;;23.88;100.00;98309.13;15295783;19;20010;-87
2022/08/20 14:12:36;;;;;;;2.42;1.80;;;;;;;23.80;100.00;98299.41;15291544;19;20484;-88
2022/08/20 14:17:50;;;;;;;2.50;1.73;;;;;;;23.59;100.00;98312.78;15314617;19;20042;-86
2022/08/20 14:22:55;;;;;;;2.42;1.90;;;;;;;23.58;100.00;98313.88;15306772;19;20055;-86
2022/08/20 14:28:10;;;;;;;2.65;1.80;;;;;;;23.49;100.00;98304.38;15317025;19;20011;-86
2022/08/20 14:33:17;;;;;;;2.58;1.95;;;;;;;23.31;100.00;98303.53;15316892;19;20007;-86
2022/08/20 14:38:22;;;;;;;5.00;2.00;;;;;;;23.33;100.00;98295.88;15314039;19;21062;-86
2022/08/20 14:43:27;;;;;;;4.10;1.63;;;;;;;23.42;100.00;98303.72;15304299;19;20021;-86
2022/08/20 14:48:35;;;;;;;2.78;1.95;;;;;;;23.34;100.00;98296.69;15333656;19;20011;-87
2022/08/20 14:53:39;;;;;;;2.50;1.80;;;;;;;23.49;100.00;98296.13;15298252;19;20017;-87
2022/08/20 14:58:44;;;;;;;2.30;1.77;;;;;;;23.54;100.00;98290.72;15290360;19;20011;-84
2022/08/20 15:03:52;;;;;;;3.25;1.98;;;;;;;23.61;100.00;98291.38;15273488;19;20499;-84
2022/08/20 15:08:58;;;;;;;7.47;1.60;;;;;;;23.68;100.00;98292.06;15275982;19;20015;-84
2022/08/20 15:14:03;;;;;;;3.00;1.83;;;;;;;23.81;100.00;98288.13;15273750;19;20002;-84
2022/08/20 15:19:10;;;;;;;4.47;1.80;;;;;;;23.93;100.00;98287.19;15285251;19;20031;-86
2022/08/20 15:24:19;;;;;;;2.88;1.88;;;;;;;24.02;100.00;98285.72;15279498;19;20475;-84
2022/08/20 15:29:24;;;;;;;2.38;1.80;;;;;;;24.12;100.00;98283.09;15275691;19;20039;-84
2022/08/20 15:34:31;;;;;;;1.83;1.70;;;;;;;24.15;100.00;98279.84;15272319;19;20039;-84
2022/08/20 15:39:36;;;;;;;2.67;2.20;;;;;;;24.15;100.00;98270.78;15283870;19;20022;-84
2022/08/20 15:44:41;;;;;;;3.40;1.90;;;;;;;24.23;100.00;98292.34;15287183;19;20070;-83
2022/08/20 15:49:50;;;;;;;2.58;1.70;;;;;;;24.29;100.00;98283.06;15284612;19;20127;-84
2022/08/20 15:54:55;;;;;;;3.22;2.33;;;;;;;24.29;100.00;98287.75;15272360;19;20022;-84
2022/08/20 16:00:11;;;;;;;2.70;2.08;;;;;;;24.26;100.00;98294.59;15292230;19;20019;-85
2022/08/20 16:05:24;;;;;;;2.13;1.80;;;;;;;24.17;100.00;98304.34;15291762;19;20020;-82
2022/08/20 16:10:34;;;;;;;2.83;1.70;;;;;;;24.09;100.00;98313.91;15291749;19;20014;-85
2022/08/20 16:15:44;;;;;;;2.10;1.70;;;;;;;24.01;100.00;98311.56;15293291;19;20014;-85
2022/08/20 16:20:57;;;;;;;2.47;1.77;;;;;;;23.90;100.00;98313.31;15298560;19;20051;-85
2022/08/20 16:26:17;;;;;;;2.20;1.80;;;;;;;23.88;100.00;98318.22;15289673;19;20030;-84
2022/08/20 16:31:25;;;;;;;3.72;2.00;;;;;;;23.90;100.00;98320.72;15319406;19;20031;-87
2022/08/20 16:36:38;;;;;;;2.67;2.13;;;;;;;23.89;100.00;98319.91;15349517;19;20018;-85
2022/08/20 16:41:46;;;;;;;3.55;2.10;;;;;;;23.90;100.00;98320.72;15299215;19;20025;-83
2022/08/20 16:46:56;;;;;;;2.40;1.90;;;;;;;23.99;100.00;98328.34;15336928;19;20031;-87
2022/08/20 16:52:22;;;;;;;3.13;2.00;;;;;;;24.03;100.00;98316.84;15364733;19;20011;-88
2022/08/20 16:57:28;;;;;;;2.35;2.10;;;;;;;23.98;100.00;98329.41;15358709;19;20014;-85
2022/08/20 17:02:33;;;;;;;3.03;1.80;;;;;;;23.88;100.00;98329.22;15295769;19;20511;-84
2022/08/20 17:07:46;;;;;;;2.17;1.80;;;;;;;23.44;100.00;98331.78;15291195;19;20015;-84
2022/08/20 17:12:58;;;;;;;4.20;1.92;;;;;;;23.13;100.00;98351.25;15284054;19;20410;-86
2022/08/20 17:18:21;;;;;;;5.00;2.28;;;;;;;22.75;100.00;98337.06;15287222;19;20043;-84
2022/08/20 17:23:28;;;;;;;2.20;2.00;;;;;;;22.74;100.00;98338.16;15287675;19;20022;-85
2022/08/20 17:28:33;;;;;;;3.65;1.92;;;;;;;22.55;100.00;98348.44;15290746;19;20034;-84
2022/08/20 17:33:41;;;;;;;4.82;1.90;;;;;;;22.34;100.00;98352.59;15301209;19;20021;-85
2022/08/20 17:38:53;;;;;;;3.35;1.80;;;;;;;22.25;100.00;98351.31;15284934;19;20912;-84
2022/08/20 17:43:59;;;;;;;2.15;1.65;;;;;;;22.23;100.00;98353.44;15286111;19;20038;-86
2022/08/20 17:49:09;;;;;;;5.68;1.80;;;;;;;22.25;100.00;98352.13;15292293;19;20039;-87
2022/08/20 17:54:29;;;;;;;4.15;1.95;;;;;;;22.19;100.00;98355.00;15284733;19;20034;-86
2022/08/20 18:00:08;;;;;;;2.13;1.80;;;;;;;22.20;100.00;98351.19;15286347;19;20458;-87
2022/08/20 18:05:22;;;;;;;2.42;1.80;;;;;;;22.15;100.00;98358.25;15286977;19;20119;-84
2022/08/20 18:10:37;;;;;;;2.53;1.80;;;;;;;22.12;100.00;98358.69;15289097;19;20026;-85
2022/08/20 18:15:50;;;;;;;2.67;2.03;;;;;;;22.11;100.00;98357.03;15283629;19;20042;-85
2022/08/20 18:21:22;;;;;;;2.00;1.80;;;;;;;21.95;100.00;98364.06;15294872;19;20018;-83
2022/08/20 18:26:33;;;;;;;1.77;1.65;;;;;;;21.85;100.00;98366.56;15293031;19;20015;-85
2022/08/20 18:31:47;;;;;;;3.08;1.80;;;;;;;21.84;100.00;98370.38;15283841;19;20014;-85
2022/08/20 18:36:56;;;;;;;3.55;1.65;;;;;;;21.83;100.00;98377.75;15266085;19;20014;-84
2022/08/20 18:42:07;;;;;;;;;;;;;;;21.73;100.00;98369.25;15285739;19;20011;-83
2022/08/20 18:47:22;;;;;;;2.53;1.60;;;;;;;21.63;100.00;98377.22;15280864;19;19919;-82
2022/08/20 18:52:29;;;;;;;3.90;1.80;;;;;;;21.56;100.00;98388.25;15278660;19;20022;-83
2022/08/20 18:57:40;;;;;;;1.75;1.60;;;;;;;21.46;100.00;98386.06;15285148;19;20472;-82
2022/08/20 19:02:56;;;;;;;2.25;1.90;;;;;;;21.33;100.00;98386.28;15284555;19;20480;-84
2022/08/20 19:08:05;;;;;;;2.35;1.70;;;;;;;21.23;100.00;98397.81;15274969;19;20503;-84
2022/08/20 19:13:28;;;;;;;3.50;1.75;;;;;;;21.17;100.00;98406.97;15285692;19;20047;-83
2022/08/20 19:18:42;;;;;;;3.70;2.00;;;;;;;21.05;100.00;98398.66;15297226;19;20043;-83
2022/08/20 19:23:50;;;;;;;2.67;1.95;;;;;;;20.97;100.00;98399.00;15286468;19;20054;-83
2022/08/20 19:29:02;;;;;;;3.33;2.03;;;;;;;20.87;100.00;98394.03;15287450;19;20006;-83
2022/08/20 19:34:10;;;;;;;2.60;2.10;;;;;;;20.79;100.00;98406.13;15291428;19;20988;-84
2022/08/20 19:39:28;;;;;;;2.72;2.05;;;;;;;20.72;100.00;98408.09;15295304;19;20022;-84
2022/08/20 19:44:42;;;;;;;2.75;2.05;;;;;;;20.68;100.00;98417.81;15307666;19;20093;-83
2022/08/20 19:49:58;;;;;;;3.00;2.30;;;;;;;20.60;100.00;98425.25;15320810;19;20038;-86
2022/08/20 19:55:03;;;;;;;2.58;2.00;;;;;;;20.35;100.00;98425.28;15351520;19;20011;-86
2022/08/20 20:00:13;;;;;;;3.85;2.03;;;;;;;20.28;100.00;98411.69;15312658;19;20050;-85
2022/08/20 20:05:19;;;;;;;2.42;1.98;;;;;;;20.27;100.00;98415.50;15299641;19;20011;-84
2022/08/20 20:10:29;;;;;;;2.70;2.05;;;;;;;20.20;100.00;98428.38;15305781;19;20057;-84
2022/08/20 20:15:40;;;;;;;2.47;2.00;;;;;;;20.15;100.00;98425.50;15298959;19;20093;-84
2022/08/20 20:20:50;;;;;;;3.40;2.15;;;;;;;20.09;100.00;98429.09;15302901;19;20038;-85
2022/08/20 20:26:06;;;;;;;2.42;2.03;;;;;;;19.95;100.00;98429.19;15304906;19;20024;-85
2022/08/20 20:31:15;;;;;;;2.53;2.33;;;;;;;19.81;100.00;98438.56;15309924;19;20025;-86
2022/08/20 20:36:34;;;;;;;3.33;2.50;;;;;;;19.67;100.00;98432.31;15308476;19;20002;-84
2022/08/20 20:41:39;;;;;;;2.85;2.53;;;;;;;19.55;100.00;98437.66;15301629;19;20024;-84
2022/08/20 20:46:48;;;;;;;4.13;2.63;;;;;;;19.49;100.00;98442.09;15299859;19;20610;-85
2022/08/20 20:51:58;;;;;;;3.38;2.92;;;;;;;19.48;100.00;98437.69;15302216;19;20019;-85
2022/08/20 20:57:06;;;;;;;6.30;2.60;;;;;;;19.47;100.00;98451.56;15300553;19;20263;-86
2022/08/20 21:02:14;;;;;;;3.47;2.60;;;;;;;19.46;100.00;98445.28;15311696;19;20046;-85
2022/08/20 21:07:23;;;;;;;3.38;2.60;;;;;;;19.42;100.00;98446.75;15300766;19;20018;-86
2022/08/20 21:12:28;;;;;;;3.08;2.78;;;;;;;19.33;100.00;98448.91;15298829;19;20020;-84
2022/08/20 21:17:37;;;;;;;3.42;3.10;;;;;;;19.26;100.00;98453.56;15307426;19;20491;-85
2022/08/20 21:22:44;;;;;;;3.00;2.70;;;;;;;19.12;100.00;98460.13;15306199;19;20006;-84
2022/08/20 21:27:50;;;;;;;3.22;2.92;;;;;;;18.96;100.00;98454.09;15305964;19;20050;-89
2022/08/20 21:32:58;;;;;;;3.92;3.45;;;;;;;18.86;100.00;98472.78;15302989;19;20078;-85
2022/08/20 21:38:03;;;;;;;4.75;3.47;;;;;;;18.73;100.00;98469.03;15294565;19;20015;-86
2022/08/20 21:43:08;;;;;;;4.93;4.20;;;;;;;18.62;100.00;98480.59;15290557;19;20014;-86
2022/08/20 21:48:16;;;;;;;4.43;4.03;;;;;;;18.54;100.00;98484.41;15293027;19;20007;-86
2022/08/20 21:53:21;;;;;;;5.43;4.60;;;;;;;18.47;100.00;98495.31;15291416;19;20017;-86
2022/08/20 21:58:25;;;;;;;6.50;4.30;;;;;;;18.47;100.00;98492.56;15305711;19;20406;-86
2022/08/20 22:03:35;;;;;;;4.57;4.18;;;;;;;18.52;100.00;98480.22;15286260;19;20027;-86
2022/08/20 22:08:42;;;;;;;6.30;4.05;;;;;;;18.53;100.00;98477.25;15286921;19;20010;-86
2022/08/20 22:13:47;;;;;;;4.00;3.58;;;;;;;18.57;100.00;98481.25;15288379;19;20288;-86
2022/08/20 22:18:57;;;;;;;4.00;3.60;;;;;;;18.61;100.00;98468.84;15286795;19;20002;-86
2022/08/20 22:24:04;;;;;;;4.30;3.50;;;;;;;18.62;100.00;98469.69;15287904;19;20010;-86
2022/08/20 22:29:11;;;;;;;4.30;3.90;;;;;;;18.63;100.00;98468.66;15290372;19;20006;-86
2022/08/20 22:34:21;;;;;;;4.47;4.05;;;;;;;18.53;100.00;98465.50;15290289;19;20011;-87
2022/08/20 22:39:31;;;;;;;5.22;4.72;;;;;;;18.46;100.00;98465.53;15296088;19;20009;-85
2022/08/20 22:44:42;;;;;;;5.60;5.10;;;;;;;18.35;100.00;98471.59;15293208;19;20512;-85
2022/08/20 22:49:55;;;;;;;6.43;5.30;;;;;;;18.24;100.00;98479.34;15288943;19;20026;-87
2022/08/20 22:54:59;;;;;;;5.32;4.70;;;;;;;18.17;100.00;98489.44;15292975;19;20054;-85
2022/08/20 23:00:16;;;;;;;5.53;4.82;;;;;;;18.16;100.00;98487.75;15297984;19;20014;-86
2022/08/20 23:05:26;;;;;;;5.20;4.70;;;;;;;18.06;100.00;98485.44;15298760;19;20010;-85
2022/08/20 23:10:39;;;;;;;5.57;4.93;;;;;;;17.96;100.00;98494.00;15337725;19;20015;-84
2022/08/20 23:15:44;;;;;;;27.77;6.85;;;;;;;17.87;100.00;98498.81;15346570;19;20035;-85
2022/08/20 23:20:54;;;;;;;116.78;11.85;;;;;;;17.80;100.00;98495.22;15326761;19;19998;-84
2022/08/20 23:26:05;;;;;;;71.68;8.32;;;;;;;17.76;100.00;98501.31;15307196;19;20010;-85
2022/08/20 23:31:10;;;;;;;57.45;9.68;;;;;;;17.77;100.00;98497.50;15312297;19;20018;-86
2022/08/20 23:36:22;;;;;;;119.35;10.73;;;;;;;17.76;100.00;98502.13;15300151;19;20007;-84
2022/08/20 23:41:27;;;;;;;272.48;16.00;;;;;;;17.73;100.00;98505.25;15300865;19;20006;-84